Latest Weather Observations for Bushy Park

IDT60801

Issued at 8:31 am EST Saturday 2 July 2016 (issued every 30 minutes, with the page automatically refreshed every 10 minutes)

About weather observations | Map of weather stations | Latest weather observations for TAS | Other Formats
Station Details ID: 095003 Name: BUSHY PARK (BUSHY PARK ESTATES) Lat: -42.71 Lon: 146.90 Height: 27.0 m
Data from the previous 72 hours. | See also: Recent months at Bushy Park
Date/Time
EST
Temp
°C
App
Temp
°C
Dew
Point
°C
Rel
Hum
%
Delta-T
°C
Wind Press
QNH
hPa
Press
MSL
hPa
Rain since
9am
mm
Dir  Spd
km/h
Gust
km/h
Spd
kts
Gust
kts
02/08:30am 8.2 6.2 6.9 91 0.6 NNE 7 11 4 6 - - 0.0
02/08:00am 8.1 5.6 6.4 89 0.8 N 9 15 5 8 - - 0.0
02/07:30am 8.8 5.1 6.4 85 1.1 W 15 19 8 10 - - 0.0
02/07:00am 8.3 3.7 6.6 89 0.8 W 20 28 11 15 - - 0.0
02/06:30am 4.9 2.5 4.2 95 0.3 NW 6 15 3 8 - - 0.0
02/06:00am 5.2 3.9 4.0 92 0.5 CALM 0 0 0 0 - - 0.0
02/05:30am 4.3 1.2 3.8 97 0.2 N 9 11 5 6 - - 0.0
02/05:00am 5.1 3.5 4.4 95 0.3 N 2 9 1 5 - - 0.0
02/04:30am 5.9 3.7 5.2 95 0.3 N 6 9 3 5 - - 0.0
02/04:00am 6.6 3.9 5.7 94 0.4 SW 9 11 5 6 - - 0.0
02/03:30am 6.3 4.0 5.6 95 0.3 NNW 7 9 4 5 - - 0.0
02/03:00am 6.7 4.6 6.0 95 0.3 SSW 6 11 3 6 - - 0.0
02/02:30am 7.1 6.2 6.2 94 0.4 CALM 0 0 0 0 - - 0.0
02/02:00am 7.3 5.7 6.2 93 0.5 NW 4 13 2 7 - - 0.0
02/01:30am 6.9 4.8 6.0 94 0.4 S 6 7 3 4 - - 0.0
02/01:00am 7.5 5.0 6.4 93 0.5 SW 9 11 5 6 - - 0.0
02/12:30am 7.4 5.8 6.3 93 0.5 ENE 4 7 2 4 - - 0.0
02/12:00am 7.8 4.5 6.3 90 0.7 NNW 13 17 7 9 - - 0.0
 
Date/Time
EST
Temp
°C
App
Temp
°C
Dew
Point
°C
Rel
Hum
%
Delta-T
°C
Wind Press
QNH
hPa
Press
MSL
hPa
Rain since
9am
mm
Dir  Spd
km/h
Gust
km/h
Spd
kts
Gust
kts
01/11:30pm 7.6 5.9 6.1 90 0.7 N 4 9 2 5 - - 0.0
01/11:00pm 8.2 5.6 6.3 88 0.9 NNW 9 11 5 6 - - 0.0
01/10:30pm 8.6 6.5 6.5 87 1.0 SW 7 9 4 5 - - 0.0
01/10:00pm 9.0 6.8 6.2 82 1.3 SSW 7 7 4 4 - - 0.0
01/09:30pm 9.3 5.6 6.3 81 1.4 N 15 19 8 10 - - 0.0
01/09:00pm 8.9 5.2 6.5 85 1.1 N 15 17 8 9 - - 0.0
01/08:30pm 8.2 5.6 6.3 88 0.9 N 9 13 5 7 - - 0.0
01/08:00pm 8.1 5.5 6.1 87 0.9 NW 9 13 5 7 - - 0.0
01/07:30pm 8.2 6.6 6.3 88 0.9 N 4 7 2 4 - - 0.0
01/07:00pm 8.1 6.1 6.1 87 0.9 N 6 9 3 5 - - 0.0
01/06:30pm 8.9 5.5 5.9 81 1.4 NNW 13 15 7 8 - - 0.0
01/06:00pm 8.9 5.5 6.1 82 1.3 N 13 15 7 8 - - 0.0
01/05:30pm 9.0 6.4 6.2 82 1.3 N 9 13 5 7 - - 0.0
01/05:00pm 9.9 7.7 6.3 78 1.7 NNW 7 11 4 6 - - 0.0
01/04:30pm 10.8 8.3 6.4 74 2.1 NNE 9 13 5 7 - - 0.0
01/04:00pm 11.1 9.0 5.8 70 2.5 W 6 9 3 5 - - 0.0
01/03:30pm 11.3 8.6 5.5 67 2.7 N 9 13 5 7 - - 0.0
01/03:00pm 11.3 7.8 5.3 66 2.8 N 13 20 7 11 - - 0.0
01/02:30pm 11.4 8.5 4.9 64 3.0 NNE 9 13 5 7 - - 0.0
01/02:00pm 11.9 10.0 5.0 62 3.2 N 4 7 2 4 - - 0.0
01/01:30pm 12.2 9.7 3.8 56 3.8 NNW 6 9 3 5 - - 0.0
01/01:00pm 11.8 8.8 4.1 59 3.5 NNW 9 15 5 8 - - 0.0
01/12:30pm 11.9 8.7 5.2 63 3.1 NNW 11 19 6 10 - - 0.0
01/12:00pm 11.1 6.5 3.5 59 3.3 W 17 26 9 14 - - 0.0
01/11:30am 10.2 6.1 4.4 67 2.6 W 15 28 8 15 - - 0.0
01/11:00am 7.0 4.7 5.7 91 0.6 ESE 7 11 4 6 - - 0.0
01/10:30am 6.6 5.2 5.7 94 0.4 NNE 2 7 1 4 - - 0.0
01/10:00am 5.4 3.0 5.2 99 0.1 N 7 11 4 6 - - 0.0
01/09:30am 4.6 2.0 4.1 97 0.2 NNE 7 9 4 5 - - 0.0
01/09:00am 4.1 2.0 4.1 100 0.0 E 4 11 2 6 - - 0.6
01/08:30am 3.6 0.5 3.4 99 0.1 NNW 9 15 5 8 - - 0.6
01/08:00am 3.2 0.9 2.7 96 0.2 E 4 11 2 6 - - 0.6
01/07:30am 2.4 0.4 2.1 98 0.1 W 2 7 1 4 - - 0.6
01/07:00am 1.9 -1.0 1.6 98 0.1 N 6 7 3 4 - - 0.6
01/06:30am 1.8 0.0 1.3 96 0.2 CALM 0 2 0 1 - - 0.6
01/06:00am 2.4 -0.4 1.9 96 0.2 N 6 11 3 6 - - 0.6
01/05:30am 2.2 0.1 1.7 96 0.2 ENE 2 7 1 4 - - 0.6
01/05:00am 2.8 -0.2 2.3 96 0.2 NNE 7 9 4 5 - - 0.6
01/04:30am 3.3 0.4 2.6 95 0.3 NW 7 11 4 6 - - 0.6
01/04:00am 3.6 0.5 3.4 99 0.1 SW 9 9 5 5 - - 0.6
01/03:30am 4.2 1.2 4.2 100 0.0 NNW 9 11 5 6 - - 0.6
01/03:00am 4.5 2.1 4.3 99 0.1 N 6 13 3 7 - - 0.6
01/02:30am 4.4 1.9 3.9 97 0.2 N 6 13 3 7 - - 0.6
01/02:00am 3.6 1.4 3.1 97 0.2 NNW 4 9 2 5 - - 0.6
01/01:30am 3.5 0.7 3.0 97 0.2 NNW 7 11 4 6 - - 0.6
01/01:00am 3.9 1.2 3.7 99 0.1 NNW 7 9 4 5 - - 0.6
01/12:30am 5.0 2.5 4.5 97 0.2 SW 7 9 4 5 - - 0.6
01/12:00am 4.8 2.8 4.3 97 0.2 N 4 9 2 5 - - 0.6
 
Date/Time
EST
Temp
°C
App
Temp
°C
Dew
Point
°C
Rel
Hum
%
Delta-T
°C
Wind Press
QNH
hPa
Press
MSL
hPa
Rain since
9am
mm
Dir  Spd
km/h
Gust
km/h
Spd
kts
Gust
kts
30/11:30pm 4.8 2.4 4.3 97 0.2 N 6 9 3 5 - - 0.6
30/11:00pm 4.9 2.0 4.4 97 0.2 NNW 9 11 5 6 - - 0.6
30/10:30pm 4.7 3.5 4.5 99 0.1 CALM 0 6 0 3 - - 0.6
30/10:00pm 5.4 2.9 4.9 97 0.2 W 7 11 4 6 - - 0.6
30/09:30pm 5.7 2.9 5.2 97 0.2 SW 9 11 5 6 - - 0.6
30/09:00pm 7.0 6.1 6.1 94 0.4 CALM 0 7 0 4 - - 0.6
30/08:30pm 6.7 3.8 6.3 97 0.2 SSW 11 11 6 6 - - 0.6
30/08:00pm 7.2 6.0 6.6 96 0.3 S 2 7 1 4 - - 0.6
30/07:30pm 8.1 7.6 7.7 97 0.2 CALM 0 0 0 0 - - 0.6
30/07:00pm 8.9 8.5 8.1 95 0.4 CALM 0 0 0 0 - - 0.6
30/06:30pm 9.1 7.4 8.3 95 0.4 N 7 9 4 5 - - 0.6
30/06:00pm 9.4 9.0 8.4 93 0.5 CALM 0 7 0 4 - - 0.4
30/05:30pm 9.6 8.0 8.2 91 0.7 SE 6 7 3 4 - - 0.2
30/05:00pm 9.9 9.5 8.1 88 0.9 CALM 0 0 0 0 - - 0.0
30/04:30pm 10.4 9.9 7.9 84 1.2 CALM 0 0 0 0 - - 0.0
30/04:00pm 10.7 9.0 7.4 80 1.6 W 6 11 3 6 - - 0.0
30/03:30pm 10.8 9.3 8.4 85 1.2 NE 6 7 3 4 - - 0.0
30/03:00pm 10.8 9.2 8.2 84 1.3 S 6 7 3 4 - - 0.0
30/02:30pm 11.1 10.6 7.8 80 1.6 CALM 0 0 0 0 - - 0.0
30/02:00pm 10.7 9.1 7.8 82 1.4 SSE 6 7 3 4 - - 0.0
30/01:30pm 10.6 9.9 7.1 79 1.7 CALM 0 0 0 0 - - 0.0
30/01:00pm 10.1 9.5 7.2 82 1.4 CALM 0 0 0 0 - - 0.0
30/12:30pm 9.7 9.1 7.6 87 1.0 CALM 0 0 0 0 - - 0.0
30/12:00pm 8.9 8.3 7.2 89 0.8 CALM 0 0 0 0 - - 0.0
30/11:30am 8.8 7.4 7.3 90 0.7 NW 4 7 2 4 - - 0.0
30/11:00am 8.3 7.6 6.8 90 0.7 CALM 0 6 0 3 - - 0.0
30/10:30am 7.5 5.9 6.4 93 0.5 N 4 6 2 3 - - 0.0
30/10:00am 6.7 5.8 6.0 95 0.3 CALM 0 0 0 0 - - 0.0
30/09:30am 6.0 3.6 5.3 95 0.3 S 7 11 4 6 - - 0.0
30/09:00am 5.6 3.5 5.6 100 0.0 S 6 7 3 4 - - 0.0
30/08:30am 5.1 3.9 4.6 97 0.2 CALM 0 4 0 2 - - 0.0
30/08:00am 5.0 2.6 4.3 95 0.3 N 6 9 3 5 - - 0.0
30/07:30am 4.9 3.6 4.2 95 0.3 CALM 0 7 0 4 - - 0.0
30/07:00am 4.7 1.3 4.2 97 0.2 SSE 11 11 6 6 - - 0.0
30/06:30am 4.0 0.5 3.5 97 0.2 NNW 11 15 6 8 - - 0.0
30/06:00am 4.4 1.0 3.9 97 0.2 SSW 11 13 6 7 - - 0.0
30/05:30am 4.6 3.3 4.1 97 0.2 CALM 0 0 0 0 - - 0.0
30/05:00am 4.4 1.8 4.2 99 0.1 N 7 13 4 7 - - 0.0
30/04:30am 4.5 1.9 4.3 99 0.1 N 7 11 4 6 - - 0.0
30/04:00am 4.6 2.0 4.1 97 0.2 N 7 9 4 5 - - 0.0
30/03:30am 4.2 2.4 3.7 97 0.2 N 2 6 1 3 - - 0.0
30/03:00am 4.5 2.8 4.0 97 0.2 NE 2 7 1 4 - - 0.0
30/02:30am 4.9 3.0 4.7 99 0.1 NNE 4 7 2 4 - - 0.0
30/02:00am 5.0 3.8 4.5 97 0.2 CALM 0 0 0 0 - - 0.0
30/01:30am 4.8 2.5 4.6 99 0.1 W 6 9 3 5 - - 0.0
30/01:00am 4.4 2.7 3.9 97 0.2 NNW 2 7 1 4 - - 0.0
30/12:30am 4.7 3.4 4.2 97 0.2 CALM 0 0 0 0 - - 0.0
30/12:00am 4.1 1.6 3.9 99 0.1 SW 6 9 3 5 - - 0.0
 
Date/Time
EST
Temp
°C
App
Temp
°C
Dew
Point
°C
Rel
Hum
%
Delta-T
°C
Wind Press
QNH
hPa
Press
MSL
hPa
Rain since
9am
mm
Dir  Spd
km/h
Gust
km/h
Spd
kts
Gust
kts
29/11:30pm 4.1 1.3 3.4 95 0.3 S 7 7 4 4 - - 0.0
29/11:00pm 4.3 2.5 3.6 95 0.3 NNE 2 6 1 3 - - 0.0
29/10:30pm 4.9 2.5 4.4 97 0.2 W 6 9 3 5 - - 0.0
29/10:00pm 5.2 2.9 4.7 97 0.2 W 6 13 3 7 - - 0.0
29/09:30pm 5.4 4.2 4.7 95 0.3 CALM 0 0 0 0 - - 0.0
29/09:00pm 6.0 5.0 5.6 97 0.2 CALM 0 7 0 4 - - 0.0
29/08:30pm 6.5 4.4 5.8 95 0.3 W 6 7 3 4 - - 0.0
29/08:00pm 6.3 4.5 5.6 95 0.3 NNW 4 9 2 5 - - 0.0
29/07:30pm 6.0 2.8 5.1 94 0.4 SW 11 13 6 7 - - 0.0
29/07:00pm 6.3 3.6 5.6 95 0.3 WSW 9 11 5 6 - - 0.0
29/06:30pm 6.2 4.0 5.5 95 0.3 NNW 6 13 3 7 - - 0.0
29/06:00pm 7.2 5.9 6.1 93 0.5 NW 2 7 1 4 - - 0.0
29/05:30pm 8.2 6.3 6.9 91 0.6 NNW 6 9 3 5 - - 0.0
29/05:00pm 9.2 7.5 7.5 89 0.8 WSW 6 11 3 6 - - 0.0
29/04:30pm 10.7 9.2 8.5 86 1.1 N 6 7 3 4 - - 0.0
29/04:00pm 12.8 11.2 8.9 77 2.0 NNW 7 9 4 5 - - 0.0
29/03:30pm 14.0 12.5 9.1 72 2.5 NNW 7 9 4 5 - - 0.0
29/03:00pm 13.3 11.5 9.4 77 2.0 WNW 9 15 5 8 - - 0.0
29/02:30pm 13.1 11.9 9.4 78 1.9 NNW 6 9 3 5 - - 0.0
29/02:00pm 12.9 12.8 9.6 80 1.7 CALM 0 6 0 3 - - 0.0
29/01:30pm 13.1 11.8 9.2 77 2.0 N 6 7 3 4 - - 0.0
29/01:00pm 14.0 12.7 9.1 72 2.5 N 6 7 3 4 - - 0.0
29/12:30pm 12.3 11.0 9.1 81 1.6 N 6 9 3 5 - - 0.0
29/12:00pm 13.3 13.1 9.0 75 2.2 CALM 0 0 0 0 - - 0.0
29/11:30am 10.9 9.4 9.3 90 0.8 S 7 9 4 5 - - 0.0
29/11:00am 10.6 10.0 8.8 89 0.9 NNE 2 7 1 4 - - 0.0
29/10:30am 10.5 9.0 9.1 91 0.7 NNE 7 9 4 5 - - 0.0
29/10:00am 10.3 9.0 9.1 92 0.6 NNE 6 7 3 4 - - 0.0
29/09:30am 9.4 9.2 9.0 97 0.2 CALM 0 0 0 0 - - 0.0
29/09:00am 8.9 7.2 8.5 97 0.2 W 7 11 4 6 - - 5.0

Other Formats:

Comma delimited format used in spreadsheet applications
http://www.bom.gov.au/fwo/IDT60801/IDT60801.94964.axf

JavaScript Object Notation format (JSON) in row-major order
http://www.bom.gov.au/fwo/IDT60801/IDT60801.94964.json